Hjorring, Denmark
Current Conditions -  °F | °C
As of 7:50 AM on Tuesday 21 Oct 2014 (Local Time) from EKYT Reporting Station
Broken Clouds Broken Clouds  
Wind Chill: 50°   Ceiling: 6000
Heat Index: 50°   Visibility: 5mi
Dew Point: 48°   Wind: 8mph
Humidity: 94%   Direction: 160°SSE
Pressure: 29.56"   Gusts: NA
Location:  57.46°N, 9.98°E
Report Text: EKYT 210550Z 16007KT 8000 FEW020 BKN060 10/09 Q1001
Loading
Personal Weather Stations






























Interactive Weather Map
Tropical Storm Tracking
New forecast layout! Learn more

10-Day Weather Forecast

Advertisements
Track Severe Weather on mobile